sensor_id;sensor_type;location;lat;lon;timestamp;pressure;altitude;pressure_sealevel;temperature;humidity
77023;BME280;65952;51.440;-2.054;2023-06-14T00:00:36;100346.81;;;19.20;45.37
77023;BME280;65952;51.440;-2.054;2023-06-14T00:03:04;100351.88;;;19.16;46.03
77023;BME280;65952;51.440;-2.054;2023-06-14T00:05:29;100352.78;;;19.10;46.19
77023;BME280;65952;51.440;-2.054;2023-06-14T00:07:58;100357.81;;;19.06;46.56
77023;BME280;65952;51.440;-2.054;2023-06-14T00:10:25;100358.09;;;18.98;46.96
77023;BME280;65952;51.440;-2.054;2023-06-14T00:12:56;100359.69;;;18.80;47.31
77023;BME280;65952;51.440;-2.054;2023-06-14T00:15:21;100363.31;;;18.67;47.93
77023;BME280;65952;51.440;-2.054;2023-06-14T00:17:46;100358.25;;;18.46;48.50
77023;BME280;65952;51.440;-2.054;2023-06-14T00:20:12;100365.00;;;18.37;49.05
77023;BME280;65952;51.440;-2.054;2023-06-14T00:22:37;100366.28;;;18.34;49.30
77023;BME280;65952;51.440;-2.054;2023-06-14T00:25:04;100367.34;;;18.26;49.52
77023;BME280;65952;51.440;-2.054;2023-06-14T00:27:30;100362.41;;;18.16;49.71
77023;BME280;65952;51.440;-2.054;2023-06-14T00:29:55;100372.88;;;18.06;49.93
77023;BME280;65952;51.440;-2.054;2023-06-14T00:32:23;100374.41;;;17.95;50.69
77023;BME280;65952;51.440;-2.054;2023-06-14T00:34:51;100375.63;;;17.99;50.35
77023;BME280;65952;51.440;-2.054;2023-06-14T00:37:16;100376.06;;;17.90;50.79
77023;BME280;65952;51.440;-2.054;2023-06-14T00:39:41;100378.34;;;17.93;50.58
77023;BME280;65952;51.440;-2.054;2023-06-14T00:42:07;100376.09;;;17.83;51.00
77023;BME280;65952;51.440;-2.054;2023-06-14T00:44:32;100377.81;;;17.70;51.69
77023;BME280;65952;51.440;-2.054;2023-06-14T00:46:58;100376.34;;;17.68;51.58
77023;BME280;65952;51.440;-2.054;2023-06-14T00:49:23;100376.16;;;17.63;51.81
77023;BME280;65952;51.440;-2.054;2023-06-14T00:51:49;100379.50;;;17.58;51.81
77023;BME280;65952;51.440;-2.054;2023-06-14T00:54:15;100382.44;;;17.57;52.32
77023;BME280;65952;51.440;-2.054;2023-06-14T00:56:41;100378.72;;;17.51;52.21
77023;BME280;65952;51.440;-2.054;2023-06-14T00:59:09;100377.63;;;17.52;52.10
77023;BME280;65952;51.440;-2.054;2023-06-14T01:01:36;100380.75;;;17.55;51.67
77023;BME280;65952;51.440;-2.054;2023-06-14T01:04:02;100374.28;;;17.57;51.39
77023;BME280;65952;51.440;-2.054;2023-06-14T01:06:57;100373.66;;;17.54;51.57
77023;BME280;65952;51.440;-2.054;2023-06-14T01:14:56;100386.00;;;17.37;51.11
77023;BME280;65952;51.440;-2.054;2023-06-14T01:17:22;100381.03;;;17.34;51.07
77023;BME280;65952;51.440;-2.054;2023-06-14T01:19:50;100389.16;;;17.34;50.90
77023;BME280;65952;51.440;-2.054;2023-06-14T01:22:24;100384.78;;;17.40;50.70
77023;BME280;65952;51.440;-2.054;2023-06-14T01:24:51;100387.28;;;17.41;50.73
77023;BME280;65952;51.440;-2.054;2023-06-14T01:27:22;100385.16;;;17.43;50.76
77023;BME280;65952;51.440;-2.054;2023-06-14T01:29:50;100396.66;;;17.32;51.03
77023;BME280;65952;51.440;-2.054;2023-06-14T01:32:17;100400.03;;;17.07;52.38
77023;BME280;65952;51.440;-2.054;2023-06-14T01:34:43;100393.78;;;17.00;52.69
77023;BME280;65952;51.440;-2.054;2023-06-14T01:37:10;100402.50;;;16.82;53.12
77023;BME280;65952;51.440;-2.054;2023-06-14T01:39:36;100403.31;;;16.69;54.22
77023;BME280;65952;51.440;-2.054;2023-06-14T01:42:03;100399.13;;;16.53;54.33
77023;BME280;65952;51.440;-2.054;2023-06-14T01:44:30;100399.91;;;16.40;54.85
77023;BME280;65952;51.440;-2.054;2023-06-14T01:46:56;100403.25;;;16.42;54.81
77023;BME280;65952;51.440;-2.054;2023-06-14T01:49:22;100399.91;;;16.33;54.92
77023;BME280;65952;51.440;-2.054;2023-06-14T01:51:48;100412.78;;;16.24;55.00
77023;BME280;65952;51.440;-2.054;2023-06-14T01:54:13;100406.72;;;16.22;55.34
77023;BME280;65952;51.440;-2.054;2023-06-14T01:56:39;100413.16;;;16.15;55.59
77023;BME280;65952;51.440;-2.054;2023-06-14T01:59:04;100409.63;;;16.07;55.96
77023;BME280;65952;51.440;-2.054;2023-06-14T02:01:29;100403.34;;;16.07;55.54
77023;BME280;65952;51.440;-2.054;2023-06-14T02:03:56;100402.06;;;15.96;55.66
77023;BME280;65952;51.440;-2.054;2023-06-14T02:06:21;100394.31;;;15.86;55.93
77023;BME280;65952;51.440;-2.054;2023-06-14T02:08:46;100396.75;;;15.81;56.00
77023;BME280;65952;51.440;-2.054;2023-06-14T02:11:12;100393.41;;;15.79;55.97
77023;BME280;65952;51.440;-2.054;2023-06-14T02:13:37;100400.69;;;15.79;55.16
77023;BME280;65952;51.440;-2.054;2023-06-14T02:16:03;100395.34;;;15.92;54.63
77023;BME280;65952;51.440;-2.054;2023-06-14T02:18:28;100396.38;;;15.91;53.85
77023;BME280;65952;51.440;-2.054;2023-06-14T02:20:54;100397.84;;;15.87;53.69
77023;BME280;65952;51.440;-2.054;2023-06-14T02:23:19;100391.09;;;15.76;53.95
77023;BME280;65952;51.440;-2.054;2023-06-14T02:25:45;100382.72;;;15.71;53.82
77023;BME280;65952;51.440;-2.054;2023-06-14T02:28:11;100387.88;;;15.59;54.46
77023;BME280;65952;51.440;-2.054;2023-06-14T02:30:36;100389.47;;;15.47;54.74
77023;BME280;65952;51.440;-2.054;2023-06-14T02:33:02;100389.44;;;15.40;54.80
77023;BME280;65952;51.440;-2.054;2023-06-14T02:35:28;100395.59;;;15.27;54.95
77023;BME280;65952;51.440;-2.054;2023-06-14T02:37:53;100383.78;;;15.35;54.23
77023;BME280;65952;51.440;-2.054;2023-06-14T02:40:19;100390.59;;;15.31;53.76
77023;BME280;65952;51.440;-2.054;2023-06-14T02:42:45;100383.91;;;15.26;54.10
77023;BME280;65952;51.440;-2.054;2023-06-14T02:45:11;100382.06;;;15.27;53.73
77023;BME280;65952;51.440;-2.054;2023-06-14T02:47:36;100384.31;;;15.23;53.88
77023;BME280;65952;51.440;-2.054;2023-06-14T02:50:02;100382.09;;;15.05;54.36
77023;BME280;65952;51.440;-2.054;2023-06-14T02:52:28;100386.88;;;15.03;53.86
77023;BME280;65952;51.440;-2.054;2023-06-14T07:18:33;100421.81;;;31.34;26.12
77023;BME280;65952;51.440;-2.054;2023-06-14T07:20:59;100418.09;;;31.25;27.01
77023;BME280;65952;51.440;-2.054;2023-06-14T07:23:25;100432.41;;;30.80;26.59
77023;BME280;65952;51.440;-2.054;2023-06-14T07:25:50;100424.84;;;30.67;26.51
77023;BME280;65952;51.440;-2.054;2023-06-14T07:28:17;100423.69;;;30.10;27.54
77023;BME280;65952;51.440;-2.054;2023-06-14T07:30:43;100431.56;;;30.99;26.34
77023;BME280;65952;51.440;-2.054;2023-06-14T07:33:08;100437.97;;;31.13;26.74
77023;BME280;65952;51.440;-2.054;2023-06-14T07:35:35;100439.66;;;30.38;27.48
77023;BME280;65952;51.440;-2.054;2023-06-14T07:38:00;100432.13;;;30.62;27.36
77023;BME280;65952;51.440;-2.054;2023-06-14T07:40:26;100439.72;;;30.90;26.56
77023;BME280;65952;51.440;-2.054;2023-06-14T07:42:51;100436.94;;;31.09;26.59
77023;BME280;65952;51.440;-2.054;2023-06-14T07:45:19;100440.47;;;31.15;26.93
77023;BME280;65952;51.440;-2.054;2023-06-14T07:47:44;100433.59;;;31.73;26.18
77023;BME280;65952;51.440;-2.054;2023-06-14T07:50:10;100437.16;;;32.66;25.04
77023;BME280;65952;51.440;-2.054;2023-06-14T07:52:35;100436.63;;;32.78;24.76
77023;BME280;65952;51.440;-2.054;2023-06-14T07:55:01;100432.06;;;33.90;23.30
77023;BME280;65952;51.440;-2.054;2023-06-14T07:57:26;100428.63;;;33.93;23.19
77023;BME280;65952;51.440;-2.054;2023-06-14T07:59:52;100437.38;;;33.15;23.20
77023;BME280;65952;51.440;-2.054;2023-06-14T08:02:18;100441.53;;;32.58;24.38
77023;BME280;65952;51.440;-2.054;2023-06-14T08:04:43;100436.97;;;32.62;24.57
77023;BME280;65952;51.440;-2.054;2023-06-14T08:07:09;100443.03;;;33.01;24.54
77023;BME280;65952;51.440;-2.054;2023-06-14T08:09:35;100454.78;;;31.97;25.02
77023;BME280;65952;51.440;-2.054;2023-06-14T08:12:04;100456.38;;;30.90;26.47
77023;BME280;65952;51.440;-2.054;2023-06-14T08:14:33;100451.84;;;31.13;26.57
77023;BME280;65952;51.440;-2.054;2023-06-14T08:16:58;100453.09;;;32.09;25.33
77023;BME280;65952;51.440;-2.054;2023-06-14T08:19:24;100448.09;;;32.62;24.62
77023;BME280;65952;51.440;-2.054;2023-06-14T08:21:50;100447.09;;;32.58;23.95
77023;BME280;65952;51.440;-2.054;2023-06-14T08:24:15;100448.41;;;32.24;24.61
77023;BME280;65952;51.440;-2.054;2023-06-14T08:26:41;100454.03;;;31.63;25.42
77023;BME280;65952;51.440;-2.054;2023-06-14T08:29:06;100452.91;;;31.64;25.16
77023;BME280;65952;51.440;-2.054;2023-06-14T08:31:32;100447.16;;;31.88;25.46
77023;BME280;65952;51.440;-2.054;2023-06-14T08:33:58;100445.41;;;32.34;24.41
77023;BME280;65952;51.440;-2.054;2023-06-14T08:36:23;100449.50;;;32.37;24.95
77023;BME280;65952;51.440;-2.054;2023-06-14T08:38:49;100453.50;;;32.81;24.36
77023;BME280;65952;51.440;-2.054;2023-06-14T08:41:20;100454.16;;;31.86;24.95
77023;BME280;65952;51.440;-2.054;2023-06-14T08:43:47;100458.38;;;31.36;25.59
77023;BME280;65952;51.440;-2.054;2023-06-14T08:46:14;100454.06;;;31.30;26.31
77023;BME280;65952;51.440;-2.054;2023-06-14T08:48:46;100451.31;;;31.44;26.33
77023;BME280;65952;51.440;-2.054;2023-06-14T08:51:12;100449.19;;;31.55;26.17
77023;BME280;65952;51.440;-2.054;2023-06-14T08:53:40;100455.00;;;31.06;25.96
77023;BME280;65952;51.440;-2.054;2023-06-14T08:56:08;100445.63;;;31.35;26.45
77023;BME280;65952;51.440;-2.054;2023-06-14T08:58:44;100445.78;;;31.58;24.99
77023;BME280;65952;51.440;-2.054;2023-06-14T09:01:13;100442.63;;;31.79;25.62
77023;BME280;65952;51.440;-2.054;2023-06-14T09:03:43;100456.22;;;32.22;25.02
77023;BME280;65952;51.440;-2.054;2023-06-14T09:06:10;100456.84;;;31.44;25.92
77023;BME280;65952;51.440;-2.054;2023-06-14T09:08:47;100445.13;;;30.81;28.69
77023;BME280;65952;51.440;-2.054;2023-06-14T09:11:17;100450.88;;;31.04;26.57
77023;BME280;65952;51.440;-2.054;2023-06-14T09:13:44;100457.41;;;30.94;25.68
77023;BME280;65952;51.440;-2.054;2023-06-14T09:16:10;100459.63;;;31.44;25.92
77023;BME280;65952;51.440;-2.054;2023-06-14T09:18:38;100465.47;;;31.28;25.18
77023;BME280;65952;51.440;-2.054;2023-06-14T09:21:06;100451.59;;;31.28;25.11
77023;BME280;65952;51.440;-2.054;2023-06-14T09:23:43;100466.69;;;31.03;25.46
77023;BME280;65952;51.440;-2.054;2023-06-14T09:26:12;100472.50;;;30.25;26.36
77023;BME280;65952;51.440;-2.054;2023-06-14T09:28:44;100463.09;;;30.02;27.02
77023;BME280;65952;51.440;-2.054;2023-06-14T09:31:14;100456.34;;;29.60;27.13
77023;BME280;65952;51.440;-2.054;2023-06-14T09:33:45;100458.47;;;29.68;25.14
77023;BME280;65952;51.440;-2.054;2023-06-14T09:36:15;100454.09;;;29.91;25.93
77023;BME280;65952;51.440;-2.054;2023-06-14T09:38:42;100467.44;;;30.08;25.60
77023;BME280;65952;51.440;-2.054;2023-06-14T09:41:07;100467.28;;;29.99;25.21
77023;BME280;65952;51.440;-2.054;2023-06-14T09:43:33;100470.97;;;29.36;26.63
77023;BME280;65952;51.440;-2.054;2023-06-14T09:46:00;100471.88;;;29.21;26.78
77023;BME280;65952;51.440;-2.054;2023-06-14T09:48:26;100463.72;;;29.06;26.79
77023;BME280;65952;51.440;-2.054;2023-06-14T09:50:55;100466.59;;;29.25;27.01
77023;BME280;65952;51.440;-2.054;2023-06-14T09:53:23;100475.03;;;30.22;25.25
77023;BME280;65952;51.440;-2.054;2023-06-14T09:55:52;100465.38;;;30.19;26.15
77023;BME280;65952;51.440;-2.054;2023-06-14T09:58:19;100466.25;;;30.14;26.70
77023;BME280;65952;51.440;-2.054;2023-06-14T10:00:47;100465.72;;;30.12;27.77
77023;BME280;65952;51.440;-2.054;2023-06-14T10:03:21;100457.03;;;30.62;27.00
77023;BME280;65952;51.440;-2.054;2023-06-14T10:05:50;100460.91;;;30.42;26.79
77023;BME280;65952;51.440;-2.054;2023-06-14T10:08:18;100467.13;;;30.34;27.29
77023;BME280;65952;51.440;-2.054;2023-06-14T10:10:44;100454.63;;;30.37;27.69
77023;BME280;65952;51.440;-2.054;2023-06-14T10:13:11;100462.06;;;30.17;27.17
77023;BME280;65952;51.440;-2.054;2023-06-14T10:23:47;100468.63;;;28.74;28.05
77023;BME280;65952;51.440;-2.054;2023-06-14T10:26:23;100463.00;;;27.64;30.75
77023;BME280;65952;51.440;-2.054;2023-06-14T10:28:56;100455.00;;;27.47;29.80
77023;BME280;65952;51.440;-2.054;2023-06-14T10:31:23;100461.53;;;27.92;31.15
77023;BME280;65952;51.440;-2.054;2023-06-14T10:34:04;100460.19;;;28.50;29.16
77023;BME280;65952;51.440;-2.054;2023-06-14T10:36:31;100458.50;;;27.83;29.35
77023;BME280;65952;51.440;-2.054;2023-06-14T10:39:04;100458.72;;;28.18;29.67
77023;BME280;65952;51.440;-2.054;2023-06-14T10:41:31;100452.72;;;28.56;29.96
77023;BME280;65952;51.440;-2.054;2023-06-14T10:46:38;100451.66;;;29.26;28.92
77023;BME280;65952;51.440;-2.054;2023-06-14T10:49:04;100450.22;;;27.99;30.22
77023;BME280;65952;51.440;-2.054;2023-06-14T10:51:38;100453.38;;;28.37;29.76
77023;BME280;65952;51.440;-2.054;2023-06-14T10:54:20;100448.13;;;28.85;29.34
77023;BME280;65952;51.440;-2.054;2023-06-14T10:56:47;100454.81;;;28.74;29.31
77023;BME280;65952;51.440;-2.054;2023-06-14T10:59:14;100443.72;;;28.84;29.31
77023;BME280;65952;51.440;-2.054;2023-06-14T11:02:09;100452.34;;;28.73;29.32
77023;BME280;65952;51.440;-2.054;2023-06-14T11:04:50;100436.19;;;29.30;28.55
77023;BME280;65952;51.440;-2.054;2023-06-14T11:07:45;100442.00;;;29.23;28.88
77023;BME280;65952;51.440;-2.054;2023-06-14T11:10:38;100441.06;;;29.03;28.01
77023;BME280;65952;51.440;-2.054;2023-06-14T11:13:06;100431.75;;;29.29;28.31
77023;BME280;65952;51.440;-2.054;2023-06-14T11:15:33;100435.44;;;29.14;29.28
77023;BME280;65952;51.440;-2.054;2023-06-14T11:18:08;100434.53;;;29.24;29.42
77023;BME280;65952;51.440;-2.054;2023-06-14T11:20:36;100430.03;;;29.87;28.66
77023;BME280;65952;51.440;-2.054;2023-06-14T11:23:03;100426.75;;;29.26;28.11
77023;BME280;65952;51.440;-2.054;2023-06-14T11:25:29;100426.91;;;29.45;29.41
77023;BME280;65952;51.440;-2.054;2023-06-14T11:27:55;100427.66;;;29.75;27.16
77023;BME280;65952;51.440;-2.054;2023-06-14T11:30:21;100424.91;;;29.75;26.14
77023;BME280;65952;51.440;-2.054;2023-06-14T11:32:51;100421.44;;;29.88;27.46
77023;BME280;65952;51.440;-2.054;2023-06-14T11:35:18;100427.63;;;28.92;28.64
77023;BME280;65952;51.440;-2.054;2023-06-14T11:37:44;100417.00;;;29.04;28.23
77023;BME280;65952;51.440;-2.054;2023-06-14T11:40:11;100422.94;;;28.92;28.60
77023;BME280;65952;51.440;-2.054;2023-06-14T11:42:39;100420.66;;;28.60;28.53
77023;BME280;65952;51.440;-2.054;2023-06-14T11:45:08;100411.94;;;28.37;29.06
77023;BME280;65952;51.440;-2.054;2023-06-14T11:47:39;100407.44;;;28.51;29.45
77023;BME280;65952;51.440;-2.054;2023-06-14T11:50:09;100406.69;;;29.15;29.68
77023;BME280;65952;51.440;-2.054;2023-06-14T11:52:36;100410.38;;;29.05;29.15
77023;BME280;65952;51.440;-2.054;2023-06-14T11:55:03;100409.88;;;28.98;29.36
77023;BME280;65952;51.440;-2.054;2023-06-14T11:57:35;100418.88;;;28.34;29.77
77023;BME280;65952;51.440;-2.054;2023-06-14T12:00:07;100405.88;;;28.35;30.33
77023;BME280;65952;51.440;-2.054;2023-06-14T12:02:37;100401.75;;;28.32;29.45
77023;BME280;65952;51.440;-2.054;2023-06-14T12:05:07;100403.00;;;28.56;29.50
77023;BME280;65952;51.440;-2.054;2023-06-14T12:07:39;100406.97;;;28.39;29.66
77023;BME280;65952;51.440;-2.054;2023-06-14T12:10:06;100399.91;;;28.67;29.80
77023;BME280;65952;51.440;-2.054;2023-06-14T12:12:36;100394.59;;;29.40;29.38
77023;BME280;65952;51.440;-2.054;2023-06-14T12:15:07;100410.78;;;29.23;28.54
77023;BME280;65952;51.440;-2.054;2023-06-14T12:17:36;100394.94;;;29.33;27.94
77023;BME280;65952;51.440;-2.054;2023-06-14T12:20:09;100392.44;;;29.32;28.48
77023;BME280;65952;51.440;-2.054;2023-06-14T12:22:36;100391.16;;;29.19;28.66
77023;BME280;65952;51.440;-2.054;2023-06-14T12:25:02;100386.00;;;29.12;28.50
77023;BME280;65952;51.440;-2.054;2023-06-14T12:27:28;100394.94;;;28.64;29.27
77023;BME280;65952;51.440;-2.054;2023-06-14T12:30:01;100391.88;;;29.00;28.88
77023;BME280;65952;51.440;-2.054;2023-06-14T12:32:28;100388.00;;;29.01;28.93
77023;BME280;65952;51.440;-2.054;2023-06-14T12:34:55;100399.97;;;28.92;28.26
77023;BME280;65952;51.440;-2.054;2023-06-14T12:37:21;100390.66;;;29.17;28.37
77023;BME280;65952;51.440;-2.054;2023-06-14T12:39:47;100389.16;;;29.30;28.04
77023;BME280;65952;51.440;-2.054;2023-06-14T12:42:12;100386.72;;;29.28;27.98
77023;BME280;65952;51.440;-2.054;2023-06-14T12:44:39;100389.00;;;29.16;28.62
77023;BME280;65952;51.440;-2.054;2023-06-14T12:47:07;100389.06;;;29.64;28.32
77023;BME280;65952;51.440;-2.054;2023-06-14T12:49:32;100394.19;;;29.23;28.56
77023;BME280;65952;51.440;-2.054;2023-06-14T12:51:58;100378.47;;;29.47;28.75
77023;BME280;65952;51.440;-2.054;2023-06-14T12:54:23;100389.28;;;29.68;27.84
77023;BME280;65952;51.440;-2.054;2023-06-14T12:56:53;100389.72;;;29.80;27.63
77023;BME280;65952;51.440;-2.054;2023-06-14T12:59:20;100386.00;;;29.66;28.34
77023;BME280;65952;51.440;-2.054;2023-06-14T13:01:45;100378.56;;;29.86;28.76
77023;BME280;65952;51.440;-2.054;2023-06-14T13:04:12;100381.94;;;30.07;28.19
77023;BME280;65952;51.440;-2.054;2023-06-14T13:06:38;100387.72;;;29.62;29.02
77023;BME280;65952;51.440;-2.054;2023-06-14T13:09:05;100379.81;;;29.74;28.61
77023;BME280;65952;51.440;-2.054;2023-06-14T13:11:30;100382.34;;;29.95;29.03
77023;BME280;65952;51.440;-2.054;2023-06-14T13:13:56;100386.13;;;29.80;28.79
77023;BME280;65952;51.440;-2.054;2023-06-14T13:16:21;100381.09;;;30.06;28.61
77023;BME280;65952;51.440;-2.054;2023-06-14T13:18:47;100377.47;;;30.49;28.38
77023;BME280;65952;51.440;-2.054;2023-06-14T13:21:12;100377.81;;;30.80;27.86
77023;BME280;65952;51.440;-2.054;2023-06-14T13:23:37;100370.44;;;30.57;27.78
77023;BME280;65952;51.440;-2.054;2023-06-14T13:26:03;100376.28;;;30.88;28.44
77023;BME280;65952;51.440;-2.054;2023-06-14T13:28:28;100370.63;;;30.79;28.19
77023;BME280;65952;51.440;-2.054;2023-06-14T13:30:54;100370.31;;;30.24;28.59
77023;BME280;65952;51.440;-2.054;2023-06-14T13:33:21;100374.09;;;30.85;27.84
77023;BME280;65952;51.440;-2.054;2023-06-14T13:35:46;100376.56;;;30.15;29.31
77023;BME280;65952;51.440;-2.054;2023-06-14T13:38:12;100370.72;;;30.55;28.98
77023;BME280;65952;51.440;-2.054;2023-06-14T13:40:37;100369.28;;;30.58;28.73
77023;BME280;65952;51.440;-2.054;2023-06-14T13:43:03;100366.41;;;30.49;28.92
77023;BME280;65952;51.440;-2.054;2023-06-14T13:45:28;100373.69;;;30.59;28.61
77023;BME280;65952;51.440;-2.054;2023-06-14T13:47:54;100378.44;;;30.39;28.80
77023;BME280;65952;51.440;-2.054;2023-06-14T13:50:20;100373.13;;;30.43;28.63
77023;BME280;65952;51.440;-2.054;2023-06-14T13:52:45;100376.41;;;29.82;29.32
77023;BME280;65952;51.440;-2.054;2023-06-14T13:55:11;100369.28;;;30.39;29.27
77023;BME280;65952;51.440;-2.054;2023-06-14T13:57:36;100362.97;;;30.71;28.68
77023;BME280;65952;51.440;-2.054;2023-06-14T14:00:02;100363.38;;;30.07;29.78
77023;BME280;65952;51.440;-2.054;2023-06-14T14:02:29;100370.78;;;29.69;30.16
77023;BME280;65952;51.440;-2.054;2023-06-14T14:04:55;100367.88;;;29.55;29.65
77023;BME280;65952;51.440;-2.054;2023-06-14T14:07:21;100357.56;;;30.28;29.11
77023;BME280;65952;51.440;-2.054;2023-06-14T14:09:47;100357.56;;;30.80;28.37
77023;BME280;65952;51.440;-2.054;2023-06-14T14:12:13;100356.78;;;30.93;28.92
77023;BME280;65952;51.440;-2.054;2023-06-14T14:14:39;100354.75;;;30.99;28.84
77023;BME280;65952;51.440;-2.054;2023-06-14T14:17:05;100353.63;;;31.00;29.39
77023;BME280;65952;51.440;-2.054;2023-06-14T14:19:32;100357.97;;;30.73;28.80
77023;BME280;65952;51.440;-2.054;2023-06-14T14:21:57;100360.97;;;30.58;29.61
77023;BME280;65952;51.440;-2.054;2023-06-14T14:24:23;100354.53;;;30.95;28.75
77023;BME280;65952;51.440;-2.054;2023-06-14T14:26:48;100351.53;;;31.39;28.76
77023;BME280;65952;51.440;-2.054;2023-06-14T14:29:15;100351.53;;;31.25;28.91
77023;BME280;65952;51.440;-2.054;2023-06-14T14:31:41;100362.13;;;31.79;28.70
77023;BME280;65952;51.440;-2.054;2023-06-14T14:34:06;100357.09;;;30.92;29.38
77023;BME280;65952;51.440;-2.054;2023-06-14T14:36:32;100353.31;;;31.02;29.16
77023;BME280;65952;51.440;-2.054;2023-06-14T14:38:59;100352.34;;;31.25;29.18
77023;BME280;65952;51.440;-2.054;2023-06-14T14:41:25;100352.16;;;30.89;29.89
77023;BME280;65952;51.440;-2.054;2023-06-14T14:43:50;100359.31;;;30.76;29.54
77023;BME280;65952;51.440;-2.054;2023-06-14T14:46:16;100353.81;;;30.57;30.02
77023;BME280;65952;51.440;-2.054;2023-06-14T14:48:42;100353.34;;;31.16;29.03
77023;BME280;65952;51.440;-2.054;2023-06-14T14:51:07;100360.47;;;30.56;30.10
77023;BME280;65952;51.440;-2.054;2023-06-14T14:53:33;100355.34;;;30.44;29.25
77023;BME280;65952;51.440;-2.054;2023-06-14T14:55:58;100357.31;;;30.43;29.69
77023;BME280;65952;51.440;-2.054;2023-06-14T14:58:24;100360.97;;;30.39;29.84
77023;BME280;65952;51.440;-2.054;2023-06-14T15:00:49;100361.25;;;30.75;29.47
77023;BME280;65952;51.440;-2.054;2023-06-14T15:03:15;100357.09;;;31.25;28.68
77023;BME280;65952;51.440;-2.054;2023-06-14T15:05:40;100352.19;;;31.50;28.78
77023;BME280;65952;51.440;-2.054;2023-06-14T15:08:06;100341.31;;;30.59;29.35
77023;BME280;65952;51.440;-2.054;2023-06-14T15:10:38;100347.25;;;31.00;29.19
77023;BME280;65952;51.440;-2.054;2023-06-14T15:13:05;100349.50;;;30.98;29.05
77023;BME280;65952;51.440;-2.054;2023-06-14T15:15:31;100340.94;;;31.27;28.92
77023;BME280;65952;51.440;-2.054;2023-06-14T15:17:56;100350.41;;;31.12;29.03
77023;BME280;65952;51.440;-2.054;2023-06-14T15:20:22;100351.75;;;30.95;28.94
77023;BME280;65952;51.440;-2.054;2023-06-14T15:22:47;100346.13;;;31.01;28.82
77023;BME280;65952;51.440;-2.054;2023-06-14T15:25:13;100353.38;;;30.50;29.73
77023;BME280;65952;51.440;-2.054;2023-06-14T15:27:38;100341.78;;;30.80;28.91
77023;BME280;65952;51.440;-2.054;2023-06-14T15:30:04;100348.66;;;30.83;28.71
77023;BME280;65952;51.440;-2.054;2023-06-14T15:32:31;100339.59;;;31.24;28.34
77023;BME280;65952;51.440;-2.054;2023-06-14T15:34:56;100342.25;;;31.16;28.73
77023;BME280;65952;51.440;-2.054;2023-06-14T15:37:22;100346.16;;;30.48;29.46
77023;BME280;65952;51.440;-2.054;2023-06-14T15:39:47;100344.75;;;30.51;29.13
77023;BME280;65952;51.440;-2.054;2023-06-14T15:42:12;100350.72;;;30.58;29.26
77023;BME280;65952;51.440;-2.054;2023-06-14T15:44:38;100346.56;;;30.23;29.14
77023;BME280;65952;51.440;-2.054;2023-06-14T15:47:04;100343.53;;;30.57;29.64
77023;BME280;65952;51.440;-2.054;2023-06-14T15:49:29;100338.31;;;30.37;29.45
77023;BME280;65952;51.440;-2.054;2023-06-14T15:51:55;100341.88;;;30.37;29.42
77023;BME280;65952;51.440;-2.054;2023-06-14T15:54:20;100348.13;;;30.29;29.01
77023;BME280;65952;51.440;-2.054;2023-06-14T15:56:46;100333.25;;;30.58;28.97
77023;BME280;65952;51.440;-2.054;2023-06-14T15:59:11;100329.13;;;30.74;29.34
77023;BME280;65952;51.440;-2.054;2023-06-14T16:01:36;100335.44;;;30.61;29.23
77023;BME280;65952;51.440;-2.054;2023-06-14T16:04:02;100339.16;;;30.70;28.52
77023;BME280;65952;51.440;-2.054;2023-06-14T16:06:27;100336.84;;;30.77;28.44
77023;BME280;65952;51.440;-2.054;2023-06-14T16:08:53;100341.00;;;30.23;29.81
77023;BME280;65952;51.440;-2.054;2023-06-14T16:11:18;100336.75;;;30.50;28.87
77023;BME280;65952;51.440;-2.054;2023-06-14T16:13:45;100338.66;;;30.68;28.86
77023;BME280;65952;51.440;-2.054;2023-06-14T16:16:10;100334.69;;;30.36;28.60
77023;BME280;65952;51.440;-2.054;2023-06-14T16:18:36;100338.81;;;30.20;28.89
77023;BME280;65952;51.440;-2.054;2023-06-14T16:21:02;100338.66;;;30.68;29.38
77023;BME280;65952;51.440;-2.054;2023-06-14T16:23:29;100327.00;;;30.33;28.84
77023;BME280;65952;51.440;-2.054;2023-06-14T16:25:54;100327.59;;;30.11;28.99
77023;BME280;65952;51.440;-2.054;2023-06-14T16:28:20;100330.97;;;30.08;29.76
77023;BME280;65952;51.440;-2.054;2023-06-14T16:30:45;100325.88;;;30.15;29.39
77023;BME280;65952;51.440;-2.054;2023-06-14T16:33:11;100333.94;;;29.92;29.54
77023;BME280;65952;51.440;-2.054;2023-06-14T16:35:36;100329.09;;;30.22;29.30
77023;BME280;65952;51.440;-2.054;2023-06-14T16:38:01;100338.38;;;30.12;29.26
77023;BME280;65952;51.440;-2.054;2023-06-14T16:40:27;100341.00;;;30.23;28.82
77023;BME280;65952;51.440;-2.054;2023-06-14T16:42:53;100336.88;;;30.39;29.12
77023;BME280;65952;51.440;-2.054;2023-06-14T16:45:18;100330.06;;;29.93;29.55
77023;BME280;65952;51.440;-2.054;2023-06-14T16:47:43;100329.03;;;29.89;29.58
77023;BME280;65952;51.440;-2.054;2023-06-14T16:50:09;100331.78;;;29.89;29.46
77023;BME280;65952;51.440;-2.054;2023-06-14T16:52:35;100333.75;;;29.83;29.83
77023;BME280;65952;51.440;-2.054;2023-06-14T16:55:00;100337.72;;;30.21;29.17
77023;BME280;65952;51.440;-2.054;2023-06-14T16:57:25;100330.66;;;29.66;28.71
77023;BME280;65952;51.440;-2.054;2023-06-14T16:59:51;100337.03;;;29.91;28.81
77023;BME280;65952;51.440;-2.054;2023-06-14T17:02:16;100331.22;;;29.87;28.02
77023;BME280;65952;51.440;-2.054;2023-06-14T17:04:42;100335.47;;;29.79;28.98
77023;BME280;65952;51.440;-2.054;2023-06-14T17:07:07;100341.44;;;29.43;30.04
77023;BME280;65952;51.440;-2.054;2023-06-14T17:09:33;100340.00;;;29.51;30.35
77023;BME280;65952;51.440;-2.054;2023-06-14T17:11:58;100343.63;;;29.71;30.13
77023;BME280;65952;51.440;-2.054;2023-06-14T17:14:24;100338.97;;;29.66;30.25
77023;BME280;65952;51.440;-2.054;2023-06-14T17:16:49;100350.34;;;29.40;30.31
77023;BME280;65952;51.440;-2.054;2023-06-14T17:19:15;100348.41;;;29.65;30.48